Time;durP1;ratioP1;P1;durP2;ratioP2;P2;SDS_P1;SDS_P2;PMS_P1;PMS_P2;Temp;Humidity;BMP_temperature;BMP_pressure;BME280_temperature;BME280_humidity;BME280_pressure;Samples;Min_cycle;Max_cycle;Signal;HPM_P1;HPM_P2
2023/07/13 00:00:58;;;;;;;;;;;;;;;20.17;59.42;100287.88;108208;1257;72752;-79
2023/07/13 00:03:25;;;;;;;;;;;;;;;20.18;59.44;100284.08;108198;1254;61220;-80
2023/07/13 00:05:59;;;;;;;;;;;;;;;20.22;59.47;100282.95;108136;1255;61144;-79
2023/07/13 00:08:26;;;;;;;;;;;;;;;20.26;59.56;100284.75;108212;1254;73589;-78
2023/07/13 00:10:54;;;;;;;;;;;;;;;20.26;59.54;100282.84;108217;1253;72853;-80
2023/07/13 00:13:20;;;;;;;;;;;;;;;20.26;59.36;100280.36;108095;1258;61133;-79
2023/07/13 00:15:47;;;;;;;;;;;;;;;20.29;59.35;100275.59;108191;1255;61252;-79
2023/07/13 00:18:20;;;;;;;;;;;;;;;20.31;59.20;100271.49;108150;1256;61141;-78
2023/07/13 00:20:47;;;;;;;;;;;;;;;20.31;59.33;100265.98;108178;1254;73151;-79
2023/07/13 00:23:15;;;;;;;;;;;;;;;20.31;59.32;100268.77;108271;1254;73040;-79
2023/07/13 00:25:42;;;;;;;;;;;;;;;20.32;59.06;100261.42;108162;1253;73531;-78
2023/07/13 00:28:11;;;;;;;;;;;;;;;20.33;58.90;100255.45;108132;1254;62896;-78
2023/07/13 00:30:43;;;;;;;;;;;;;;;20.36;58.70;100252.75;108112;1253;60316;-78
2023/07/13 00:33:33;;;;;;;;;;;;;;;20.37;58.39;100244.20;108129;1254;73519;-77
2023/07/13 00:36:04;;;;;;;;;;;;;;;20.39;58.31;100241.47;108145;1256;72842;-77
2023/07/13 00:38:39;;;;;;;;;;;;;;;20.38;57.99;100236.49;108137;1256;71546;-78
2023/07/13 00:41:07;;;;;;;;;;;;;;;20.38;57.83;100232.15;108133;1254;61281;-79
2023/07/13 00:43:40;;;;;;;;;;;;;;;20.37;57.57;100230.96;108226;1253;61245;-78
2023/07/13 00:46:17;;;;;;;;;;;;;;;20.37;57.36;100233.36;108083;1254;73464;-78
2023/07/13 00:48:44;;;;;;;;;;;;;;;20.36;57.26;100236.00;108061;1255;72893;-78
2023/07/13 00:51:11;;;;;;;;;;;;;;;20.34;57.15;100237.10;108073;1254;71275;-78
2023/07/13 00:53:38;;;;;;;;;;;;;;;20.33;56.89;100234.19;108009;1260;61268;-77
2023/07/13 00:56:07;;;;;;;;;;;;;;;20.33;56.83;100230.23;108118;1254;61140;-79
2023/07/13 00:58:34;;;;;;;;;;;;;;;20.32;56.72;100229.61;108217;1256;73649;-80
2023/07/13 01:01:01;;;;;;;;;;;;;;;20.34;56.56;100234.08;108076;1255;72641;-79
2023/07/13 01:03:28;;;;;;;;;;;;;;;20.35;56.62;100233.59;108218;1254;72144;-79
2023/07/13 01:05:55;;;;;;;;;;;;;;;20.36;56.34;100233.48;108248;1254;62548;-78
2023/07/13 01:08:22;;;;;;;;;;;;;;;20.39;56.35;100230.39;108256;1256;61272;-80
2023/07/13 01:10:53;;;;;;;;;;;;;;;20.43;56.19;100226.48;108240;1256;75922;-79
2023/07/13 01:13:20;;;;;;;;;;;;;;;20.46;56.14;100228.31;108261;1256;72236;-80
2023/07/13 01:15:48;;;;;;;;;;;;;;;20.50;56.32;100233.20;108241;1255;72608;-78
2023/07/13 01:18:24;;;;;;;;;;;;;;;20.52;56.06;100234.60;108202;1253;61114;-77
2023/07/13 01:20:56;;;;;;;;;;;;;;;20.53;56.15;100230.70;108202;1255;61162;-78
2023/07/13 01:23:25;;;;;;;;;;;;;;;20.54;56.17;100223.77;108217;1255;74669;-78
2023/07/13 01:25:52;;;;;;;;;;;;;;;20.54;55.96;100222.85;108262;1254;71354;-79
2023/07/13 01:28:19;;;;;;;;;;;;;;;20.53;56.13;100224.64;108200;1256;72790;-78
2023/07/13 01:30:46;;;;;;;;;;;;;;;20.50;56.17;100223.04;108154;1254;61074;-78
2023/07/13 01:33:13;;;;;;;;;;;;;;;20.46;56.15;100220.03;108242;1256;61250;-79
2023/07/13 01:35:41;;;;;;;;;;;;;;;20.43;56.20;100216.97;108104;1258;74446;-79
2023/07/13 01:38:10;;;;;;;;;;;;;;;20.40;56.32;100213.61;108158;1254;72685;-79
2023/07/13 01:40:37;;;;;;;;;;;;;;;20.37;56.24;100217.67;108214;1257;71908;-79
2023/07/13 01:43:07;;;;;;;;;;;;;;;20.35;56.26;100219.33;108264;1254;62001;-79
2023/07/13 01:45:34;;;;;;;;;;;;;;;20.33;56.53;100222.04;108256;1253;60044;-79
2023/07/13 01:48:09;;;;;;;;;;;;;;;20.34;56.61;100222.20;108137;1254;73204;-79
2023/07/13 01:50:36;;;;;;;;;;;;;;;20.35;56.61;100224.05;108257;1254;72653;-79
2023/07/13 01:53:03;;;;;;;;;;;;;;;20.37;56.63;100225.50;108222;1256;71175;-78
2023/07/13 01:55:34;;;;;;;;;;;;;;;20.38;56.82;100225.39;108107;1254;62150;-79
2023/07/13 01:58:02;;;;;;;;;;;;;;;20.41;56.63;100220.08;108239;1254;61222;-78
2023/07/13 02:00:29;;;;;;;;;;;;;;;20.42;56.59;100221.96;108231;1256;74747;-79
2023/07/13 02:02:56;;;;;;;;;;;;;;;20.44;56.45;100226.22;108151;1256;72460;-79
2023/07/13 02:05:26;;;;;;;;;;;;;;;20.45;56.42;100226.59;108252;1253;72777;-79
2023/07/13 02:07:53;;;;;;;;;;;;;;;20.46;56.29;100224.37;108236;1253;61141;-79
2023/07/13 02:10:20;;;;;;;;;;;;;;;20.47;56.13;100226.42;108198;1254;61142;-79
2023/07/13 02:12:50;;;;;;;;;;;;;;;20.47;55.98;100226.42;108269;1254;74582;-79
2023/07/13 02:15:17;;;;;;;;;;;;;;;20.46;55.93;100228.34;108171;1254;72934;-79
2023/07/13 02:17:45;;;;;;;;;;;;;;;20.46;55.84;100224.50;108234;1255;71885;-79
2023/07/13 02:20:12;;;;;;;;;;;;;;;20.45;55.63;100220.82;108118;1253;61907;-79
2023/07/13 02:22:39;;;;;;;;;;;;;;;20.43;55.71;100219.38;108235;1254;60970;-79
2023/07/13 02:25:06;;;;;;;;;;;;;;;20.42;55.68;100216.94;108196;1256;73177;-79
2023/07/13 02:27:34;;;;;;;;;;;;;;;20.42;55.70;100220.03;108255;1254;72718;-79
2023/07/13 02:30:02;;;;;;;;;;;;;;;20.42;55.91;100217.07;108200;1256;72846;-79
2023/07/13 02:32:29;;;;;;;;;;;;;;;20.41;55.85;100218.59;108245;1258;61843;-79
2023/07/13 02:34:57;;;;;;;;;;;;;;;20.39;56.00;100213.82;108202;1254;61174;-79
2023/07/13 02:37:23;;;;;;;;;;;;;;;20.41;56.03;100214.02;108185;1254;74669;-79
2023/07/13 02:39:50;;;;;;;;;;;;;;;20.41;56.03;100211.73;108208;1256;71346;-79
2023/07/13 02:42:18;;;;;;;;;;;;;;;20.42;55.87;100213.37;108233;1257;72711;-79
2023/07/13 02:44:45;;;;;;;;;;;;;;;20.42;56.00;100210.80;108248;1254;61376;-79
2023/07/13 02:47:12;;;;;;;;;;;;;;;20.43;55.91;100212.39;108240;1256;61164;-77
2023/07/13 02:49:40;;;;;;;;;;;;;;;20.45;55.77;100214.79;108245;1254;74680;-78
2023/07/13 02:52:06;;;;;;;;;;;;;;;20.44;55.79;100215.52;108238;1254;71549;-78
2023/07/13 02:54:34;;;;;;;;;;;;;;;20.44;55.87;100216.07;108220;1253;72832;-79
2023/07/13 02:57:02;;;;;;;;;;;;;;;20.45;56.00;100207.76;108286;1254;61128;-79
2023/07/13 02:59:32;;;;;;;;;;;;;;;20.48;56.10;100221.65;108276;1254;61328;-79
2023/07/13 03:02:00;;;;;;;;;;;;;;;20.52;55.95;100218.87;108140;1258;74730;-78
2023/07/13 03:04:28;;;;;;;;;;;;;;;20.56;56.05;100222.06;108173;1254;73685;-78
2023/07/13 03:06:58;;;;;;;;;;;;;;;20.63;55.96;100220.59;108182;1256;72734;-79
2023/07/13 03:09:31;;;;;;;;;;;;;;;20.71;56.06;100226.46;108223;1256;61134;-80
2023/07/13 03:11:59;;;;;;;;;;;;;;;20.79;55.99;100221.31;108182;1254;60034;-79
2023/07/13 03:14:30;;;;;;;;;;;;;;;20.88;55.94;100218.52;108283;1254;75639;-79
2023/07/13 03:16:57;;;;;;;;;;;;;;;20.95;55.82;100218.16;108256;1256;74222;-79
2023/07/13 03:19:26;;;;;;;;;;;;;;;21.01;55.82;100224.52;108288;1256;74020;-79
2023/07/13 03:21:54;;;;;;;;;;;;;;;21.07;55.79;100220.98;108209;1256;61091;-78
2023/07/13 03:24:24;;;;;;;;;;;;;;;21.13;55.86;100222.19;108290;1254;59839;-78
2023/07/13 03:26:51;;;;;;;;;;;;;;;21.18;55.77;100228.05;108183;1254;74617;-78
2023/07/13 03:29:18;;;;;;;;;;;;;;;21.22;55.72;100232.83;108225;1259;72884;-79
2023/07/13 03:31:46;;;;;;;;;;;;;;;21.27;55.61;100229.89;108044;1256;72708;-78
2023/07/13 03:34:13;;;;;;;;;;;;;;;21.35;55.42;100226.35;108008;1256;61987;-79
2023/07/13 03:36:40;;;;;;;;;;;;;;;21.42;55.37;100219.08;108058;1259;60078;-79
2023/07/13 03:39:09;;;;;;;;;;;;;;;21.54;55.07;100216.83;108182;1254;75945;-79
2023/07/13 03:41:47;;;;;;;;;;;;;;;21.67;55.09;100213.14;108164;1257;72588;-79
2023/07/13 03:44:18;;;;;;;;;;;;;;;21.82;55.01;100210.01;107959;1254;72444;-79
2023/07/13 03:46:47;;;;;;;;;;;;;;;22.00;54.77;100208.86;108157;1258;61814;-79
2023/07/13 03:49:14;;;;;;;;;;;;;;;22.19;54.57;100203.70;108180;1254;61137;-78
2023/07/13 03:51:41;;;;;;;;;;;;;;;22.37;54.12;100199.67;108201;1256;74639;-78
2023/07/13 03:54:08;;;;;;;;;;;;;;;22.57;53.63;100202.92;108116;1256;71416;-79
2023/07/13 03:56:35;;;;;;;;;;;;;;;22.73;52.87;100205.48;108175;1257;72841;-78
2023/07/13 03:59:03;;;;;;;;;;;;;;;22.83;52.14;100204.36;108150;1254;61227;-79
2023/07/13 04:01:31;;;;;;;;;;;;;;;22.95;51.59;100205.47;108202;1256;61111;-79
2023/07/13 04:04:00;;;;;;;;;;;;;;;23.03;51.28;100205.67;108211;1258;74484;-79
2023/07/13 04:06:32;;;;;;;;;;;;;;;23.05;51.04;100212.05;108118;1254;72639;-79
2023/07/13 04:08:59;;;;;;;;;;;;;;;23.07;50.71;100215.84;108018;1254;72622;-79
2023/07/13 04:11:28;;;;;;;;;;;;;;;23.12;50.49;100217.05;108022;1254;62092;-79
2023/07/13 04:13:55;;;;;;;;;;;;;;;23.20;50.31;100214.00;108080;1254;61147;-79
2023/07/13 04:16:23;;;;;;;;;;;;;;;23.28;49.92;100209.20;108157;1254;74571;-79
2023/07/13 04:18:54;;;;;;;;;;;;;;;23.37;49.76;100206.92;108206;1257;72841;-79
2023/07/13 04:21:22;;;;;;;;;;;;;;;23.47;49.61;100207.27;108191;1259;71659;-79
2023/07/13 04:23:48;;;;;;;;;;;;;;;23.57;49.41;100212.80;108170;1258;61253;-79
2023/07/13 04:26:16;;;;;;;;;;;;;;;23.62;48.71;100212.77;108165;1254;61106;-79
2023/07/13 04:28:43;;;;;;;;;;;;;;;23.68;48.45;100210.41;108135;1254;73249;-79
2023/07/13 04:31:10;;;;;;;;;;;;;;;23.72;48.30;100205.46;108151;1254;72627;-79
2023/07/13 04:33:38;;;;;;;;;;;;;;;23.78;48.19;100208.33;108145;1255;71247;-79
2023/07/13 04:36:09;;;;;;;;;;;;;;;23.85;48.21;100211.08;108178;1254;61132;-77
2023/07/13 04:38:36;;;;;;;;;;;;;;;23.97;48.12;100206.98;108114;1258;59143;-78
2023/07/13 04:41:05;;;;;;;;;;;;;;;24.13;47.83;100208.09;108195;1254;72097;-79
2023/07/13 04:43:35;;;;;;;;;;;;;;;24.29;47.23;100210.09;108215;1258;72618;-79
2023/07/13 04:46:06;;;;;;;;;;;;;;;24.45;46.71;100211.14;108202;1255;72287;-79
2023/07/13 04:48:34;;;;;;;;;;;;;;;24.54;46.43;100220.37;108178;1254;61385;-79
2023/07/13 04:51:01;;;;;;;;;;;;;;;24.61;46.08;100223.48;108101;1254;61207;-79
2023/07/13 04:53:28;;;;;;;;;;;;;;;24.65;45.87;100228.45;108110;1257;74816;-79
2023/07/13 04:55:55;;;;;;;;;;;;;;;24.66;45.96;100231.54;108200;1257;72046;-79
2023/07/13 04:58:22;;;;;;;;;;;;;;;24.70;46.20;100229.05;108102;1259;71757;-79
2023/07/13 05:00:50;;;;;;;;;;;;;;;24.77;46.26;100227.06;108196;1255;61291;-79
2023/07/13 05:03:17;;;;;;;;;;;;;;;24.83;45.97;100231.55;108142;1254;61199;-79
2023/07/13 05:06:15;;;;;;;;;;;;;;;24.89;44.98;100237.52;108246;1253;74461;-78
2023/07/13 05:08:43;;;;;;;;;;;;;;;24.89;44.67;100237.60;108034;1254;73000;-77
2023/07/13 05:11:10;;;;;;;;;;;;;;;24.89;44.41;100234.25;108194;1254;71225;-78
2023/07/13 05:13:40;;;;;;;;;;;;;;;24.94;44.59;100234.56;108162;1254;61240;-79
2023/07/13 05:16:09;;;;;;;;;;;;;;;25.07;44.95;100235.98;108123;1254;62748;-79
2023/07/13 05:18:38;;;;;;;;;;;;;;;25.18;44.93;100239.16;108159;1258;74442;-79
2023/07/13 05:21:10;;;;;;;;;;;;;;;25.23;45.24;100238.41;108150;1256;73405;-79
2023/07/13 05:23:38;;;;;;;;;;;;;;;25.27;44.71;100227.08;108028;1254;72708;-79
2023/07/13 05:26:20;;;;;;;;;;;;;;;25.34;44.20;100228.36;108145;1257;62788;-79
2023/07/13 05:29:34;;;;;;;;;;;;;;;25.43;44.25;100236.39;108070;1254;61325;-80
2023/07/13 05:32:01;;;;;;;;;;;;;;;25.52;44.29;100233.74;108187;1257;73787;-79
2023/07/13 05:34:30;;;;;;;;;;;;;;;25.62;44.45;100224.73;108203;1259;72713;-78
2023/07/13 05:36:56;;;;;;;;;;;;;;;25.73;44.47;100219.52;108168;1257;71047;-78
2023/07/13 05:39:27;;;;;;;;;;;;;;;25.83;44.45;100217.20;108045;1254;59794;-78
2023/07/13 05:41:57;;;;;;;;;;;;;;;25.96;43.89;100215.52;108179;1254;61197;-79
2023/07/13 05:44:25;;;;;;;;;;;;;;;26.09;43.44;100217.18;108095;1253;73482;-78
2023/07/13 05:46:56;;;;;;;;;;;;;;;26.24;43.11;100220.12;108179;1254;72781;-79
2023/07/13 05:49:25;;;;;;;;;;;;;;;26.36;42.99;100223.48;108128;1254;70208;-79
2023/07/13 05:51:53;;;;;;;;;;;;;;;26.48;42.89;100221.77;108119;1257;61371;-79
2023/07/13 05:54:29;;;;;;;;;;;;;;;26.57;42.46;100225.63;108725;1253;61381;-79
2023/07/13 05:57:00;;;;;;;;;;;;;;;26.62;42.45;100231.73;108569;1254;74236;-80
2023/07/13 05:59:28;;;;;;;;;;;;;;;26.63;42.39;100232.77;108032;1254;72996;-79
2023/07/13 06:01:54;;;;;;;;;;;;;;;26.70;42.16;100233.45;108109;1253;72527;-79
2023/07/13 06:04:25;;;;;;;;;;;;;;;26.74;41.86;100232.33;108108;1254;61083;-79
2023/07/13 06:06:55;;;;;;;;;;;;;;;26.82;41.76;100233.44;108199;1254;61333;-79
2023/07/13 06:09:25;;;;;;;;;;;;;;;26.92;41.85;100234.09;108127;1254;73718;-80
2023/07/13 06:11:52;;;;;;;;;;;;;;;27.06;41.73;100229.38;108101;1254;72746;-79
2023/07/13 06:14:20;;;;;;;;;;;;;;;27.16;41.52;100224.80;108103;1254;72742;-79
2023/07/13 06:16:47;;;;;;;;;;;;;;;27.24;41.10;100224.25;108156;1254;61230;-77
2023/07/13 06:19:14;;;;;;;;;;;;;;;27.27;40.72;100220.67;108147;1257;61335;-79
2023/07/13 06:21:41;;;;;;;;;;;;;;;27.28;40.42;100217.33;108033;1254;74877;-76
2023/07/13 06:24:08;;;;;;;;;;;;;;;27.26;40.40;100214.09;108137;1254;72823;-77
2023/07/13 06:26:34;;;;;;;;;;;;;;;27.21;40.59;100211.36;108111;1255;72494;-79
2023/07/13 06:29:01;;;;;;;;;;;;;;;27.26;40.99;100208.30;108123;1254;61139;-78
2023/07/13 06:31:28;;;;;;;;;;;;;;;27.39;41.03;100208.80;108173;1254;61330;-78
2023/07/13 06:33:55;;;;;;;;;;;;;;;27.57;41.25;100211.43;108128;1254;74790;-79
2023/07/13 06:36:25;;;;;;;;;;;;;;;27.73;41.28;100214.47;108149;1254;72792;-79
2023/07/13 06:38:53;;;;;;;;;;;;;;;27.83;40.51;100214.31;108117;1254;61140;-78
2023/07/13 06:41:22;;;;;;;;;;;;;;;27.82;40.05;100218.21;108183;1257;61128;-79
2023/07/13 06:43:48;;;;;;;;;;;;;;;27.80;40.31;100218.52;108139;1254;61269;-79
2023/07/13 06:46:15;;;;;;;;;;;;;;;27.85;40.50;100218.95;108118;1254;74678;-79
2023/07/13 06:48:42;;;;;;;;;;;;;;;27.86;40.64;100212.05;108130;1257;72796;-79
2023/07/13 06:51:09;;;;;;;;;;;;;;;27.92;40.72;100209.96;108128;1254;72348;-79
2023/07/13 06:53:38;;;;;;;;;;;;;;;28.03;40.49;100208.86;108197;1254;61130;-79
2023/07/13 06:56:06;;;;;;;;;;;;;;;28.15;40.42;100211.98;108165;1254;61159;-79
2023/07/13 06:58:33;;;;;;;;;;;;;;;28.22;40.43;100214.29;108129;1254;74709;-78
2023/07/13 07:01:01;;;;;;;;;;;;;;;28.27;40.57;100212.44;108122;1254;72824;-78
2023/07/13 07:03:28;;;;;;;;;;;;;;;28.46;40.55;100221.09;108212;1254;72833;-79
2023/07/13 07:06:00;;;;;;;;;;;;;;;28.67;39.65;100221.33;108231;1254;61160;-79
2023/07/13 07:08:27;;;;;;;;;;;;;;;28.77;38.80;100223.24;108173;1254;61130;-79
2023/07/13 07:10:54;;;;;;;;;;;;;;;28.78;38.87;100222.86;108149;1254;64540;-78
2023/07/13 07:13:20;;;;;;;;;;;;;;;28.87;39.24;100223.97;108142;1254;64275;-79
2023/07/13 07:15:49;;;;;;;;;;;;;;;28.99;38.90;100220.24;108161;1257;64097;-79
2023/07/13 07:18:16;;;;;;;;;;;;;;;29.07;38.85;100214.21;108101;1257;61154;-79
2023/07/13 07:20:43;;;;;;;;;;;;;;;29.19;39.00;100215.64;108112;1254;59218;-80
2023/07/13 07:23:10;;;;;;;;;;;;;;;29.31;38.85;100214.39;108149;1254;65245;-79
2023/07/13 07:25:41;;;;;;;;;;;;;;;29.36;38.82;100211.48;108233;1254;62554;-79
2023/07/13 07:28:08;;;;;;;;;;;;;;;29.42;38.81;100212.34;108267;1254;63826;-79
2023/07/13 07:30:42;;;;;;;;;;;;;;;29.44;39.33;100213.75;108298;1254;61136;-79
2023/07/13 07:33:12;;;;;;;;;;;;;;;29.50;39.03;100204.87;108219;1254;61128;-78
2023/07/13 07:35:39;;;;;;;;;;;;;;;29.55;38.65;100202.90;108768;1254;64826;-79
2023/07/13 07:38:26;;;;;;;;;;;;;;;29.61;38.51;100201.11;108723;1254;64014;-81
2023/07/13 07:40:53;;;;;;;;;;;;;;;29.63;38.67;100201.81;108664;1254;62675;-79
2023/07/13 07:43:28;;;;;;;;;;;;;;;29.60;38.64;100205.20;108650;1253;60966;-79
2023/07/13 07:45:55;;;;;;;;;;;;;;;29.59;38.37;100206.21;108703;1257;58576;-78
2023/07/13 07:48:22;;;;;;;;;;;;;;;29.63;38.59;100208.10;108627;1254;64799;-78
2023/07/13 07:50:49;;;;;;;;;;;;;;;29.77;38.74;100213.52;108179;1254;64191;-77
2023/07/13 07:53:16;;;;;;;;;;;;;;;29.95;38.52;100220.64;108169;1257;63783;-78
2023/07/13 07:55:43;;;;;;;;;;;;;;;30.13;38.31;100225.00;108132;1254;61321;-79
2023/07/13 07:58:13;;;;;;;;;;;;;;;30.33;38.23;100227.40;108150;1254;61216;-79
2023/07/13 08:01:06;;;;;;;;;;;;;;;30.51;37.82;100229.68;108190;1253;66010;-78
2023/07/13 08:03:36;;;;;;;;;;;;;;;30.64;37.42;100219.22;108152;1254;62997;-79
2023/07/13 08:06:06;;;;;;;;;;;;;;;30.77;37.19;100220.75;108168;1254;64149;-79
2023/07/13 08:08:35;;;;;;;;;;;;;;;30.82;37.03;100218.60;108155;1254;61135;-79
2023/07/13 08:11:04;;;;;;;;;;;;;;;30.86;36.85;100213.92;108217;1254;61142;-79
2023/07/13 08:13:51;;;;;;;;;;;;;;;30.96;36.85;100214.65;108204;1254;64797;-78
2023/07/13 08:16:22;;;;;;;;;;;;;;;31.08;36.89;100217.09;108217;1254;62835;-79
2023/07/13 08:18:49;;;;;;;;;;;;;;;31.16;36.54;100214.43;108181;1257;62675;-80
2023/07/13 08:21:15;;;;;;;;;;;;;;;31.17;36.18;100215.38;108118;1254;61253;-79
2023/07/13 08:23:42;;;;;;;;;;;;;;;31.19;36.43;100211.41;108124;1253;61340;-79
2023/07/13 08:26:09;;;;;;;;;;;;;;;31.23;36.18;100209.89;108151;1254;67260;-79
2023/07/13 08:28:37;;;;;;;;;;;;;;;31.22;36.14;100207.84;108217;1254;64929;-79
2023/07/13 08:31:04;;;;;;;;;;;;;;;31.19;36.45;100211.40;108120;1254;63939;-78
2023/07/13 08:33:31;;;;;;;;;;;;;;;31.23;36.53;100211.45;108092;1254;61119;-78
2023/07/13 08:35:58;;;;;;;;;;;;;;;31.38;36.49;100208.29;108122;1254;61150;-79
2023/07/13 08:38:29;;;;;;;;;;;;;;;31.56;36.18;100205.61;108121;1254;66185;-78
2023/07/13 08:40:56;;;;;;;;;;;;;;;31.60;36.36;100204.30;108152;1254;64074;-80
2023/07/13 08:43:25;;;;;;;;;;;;;;;31.71;36.14;100200.98;108149;1254;64090;-78
2023/07/13 08:45:54;;;;;;;;;;;;;;;31.85;35.54;100195.86;108162;1257;61118;-79
2023/07/13 08:48:33;;;;;;;;;;;;;;;32.03;35.14;100190.47;108155;1254;61165;-79
2023/07/13 08:51:12;;;;;;;;;;;;;;;32.12;34.89;100190.84;108193;1254;66516;-79
2023/07/13 08:53:40;;;;;;;;;;;;;;;32.15;34.87;100189.52;108172;1254;64233;-79
2023/07/13 08:56:11;;;;;;;;;;;;;;;32.15;34.44;100187.56;108114;1257;65312;-79
2023/07/13 08:58:38;;;;;;;;;;;;;;;32.07;34.10;100180.86;108089;1254;61234;-77
2023/07/13 09:01:25;;;;;;;;;;;;;;;32.05;33.86;100182.56;108159;1254;61246;-77
2023/07/13 09:04:26;;;;;;;;;;;;;;;32.02;34.08;100179.98;108139;1253;67529;-79
2023/07/13 09:07:25;;;;;;;;;;;;;;;31.92;33.68;100183.17;107882;1254;64031;-78
2023/07/13 09:09:58;;;;;;;;;;;;;;;31.79;34.03;100182.65;107822;1254;65299;-78
2023/07/13 09:12:27;;;;;;;;;;;;;;;31.82;34.42;100179.39;108200;1254;61151;-78
2023/07/13 09:14:55;;;;;;;;;;;;;;;31.97;34.08;100180.13;108132;1253;61436;-78
2023/07/13 09:17:42;;;;;;;;;;;;;;;32.09;34.10;100180.70;108066;1255;66094;-79
2023/07/13 09:20:25;;;;;;;;;;;;;;;32.09;34.20;100179.98;108141;1253;62885;-79
2023/07/13 09:22:51;;;;;;;;;;;;;;;32.01;34.11;100179.98;108146;1254;64132;-78
2023/07/13 09:25:22;;;;;;;;;;;;;;;32.02;34.52;100181.41;108129;1254;60997;-78
2023/07/13 09:27:49;;;;;;;;;;;;;;;32.06;34.20;100174.66;108136;1257;61132;-79
2023/07/13 09:30:33;;;;;;;;;;;;;;;32.11;34.10;100174.27;108163;1254;65956;-78
2023/07/13 09:33:00;;;;;;;;;;;;;;;32.17;33.95;100173.00;108198;1254;64158;-79
2023/07/13 09:35:28;;;;;;;;;;;;;;;32.22;34.20;100170.81;108168;1254;63962;-79
2023/07/13 09:38:12;;;;;;;;;;;;;;;32.35;34.33;100170.09;108137;1254;61417;-78
2023/07/13 09:40:53;;;;;;;;;;;;;;;32.46;34.09;100170.46;108129;1254;61121;-78
2023/07/13 09:43:20;;;;;;;;;;;;;;;32.49;34.03;100173.81;108176;1254;67334;-80
2023/07/13 09:45:47;;;;;;;;;;;;;;;32.48;34.16;100174.14;108145;1258;62901;-80
2023/07/13 09:48:15;;;;;;;;;;;;;;;32.45;34.06;100170.94;108175;1254;63879;-78
2023/07/13 09:50:42;;;;;;;;;;;;;;;32.40;34.31;100172.95;108205;1254;61166;-79
2023/07/13 09:53:16;;;;;;;;;;;;;;;32.30;34.66;100177.91;108150;1254;61212;-78
2023/07/13 09:55:44;;;;;;;;;;;;;;;32.17;34.67;100172.23;108112;1254;66104;-79
2023/07/13 09:58:11;;;;;;;;;;;;;;;32.12;34.18;100168.18;108153;1254;64275;-78
2023/07/13 10:00:40;;;;;;;;;;;;;;;32.10;34.15;100163.38;108212;1254;63904;-78
2023/07/13 10:03:16;;;;;;;;;;;;;;;32.14;34.13;100165.06;108101;1254;61084;-78
2023/07/13 10:05:44;;;;;;;;;;;;;;;32.22;33.67;100156.52;108143;1254;59409;-79
2023/07/13 10:08:27;;;;;;;;;;;;;;;32.26;33.53;100150.94;108180;1254;66015;-77
2023/07/13 10:11:02;;;;;;;;;;;;;;;32.35;33.67;100150.73;108164;1254;64322;-78
2023/07/13 10:13:37;;;;;;;;;;;;;;;32.45;33.39;100148.80;108137;1258;64095;-78
2023/07/13 10:16:05;;;;;;;;;;;;;;;32.54;34.07;100145.85;108129;1254;61247;-78
2023/07/13 10:18:37;;;;;;;;;;;;;;;32.68;34.16;100144.23;108166;1254;61253;-78
2023/07/13 10:21:10;;;;;;;;;;;;;;;32.80;33.93;100142.39;108175;1254;67292;-78
2023/07/13 10:23:58;;;;;;;;;;;;;;;32.88;33.04;100140.05;108143;1254;64313;-77
2023/07/13 10:26:26;;;;;;;;;;;;;;;32.88;33.08;100138.30;108180;1254;64157;-78
2023/07/13 10:28:55;;;;;;;;;;;;;;;32.92;33.15;100130.58;108146;1254;61128;-78
2023/07/13 10:31:23;;;;;;;;;;;;;;;33.01;33.14;100122.86;108195;1254;61095;-78
2023/07/13 10:33:51;;;;;;;;;;;;;;;33.11;33.22;100120.16;108165;1254;65995;-79
2023/07/13 10:36:17;;;;;;;;;;;;;;;33.19;32.77;100115.99;108188;1254;65136;-78
2023/07/13 10:38:45;;;;;;;;;;;;;;;33.19;32.61;100111.33;108201;1254;63951;-78
2023/07/13 10:41:16;;;;;;;;;;;;;;;33.20;33.03;100106.58;108158;1254;61271;-77
2023/07/13 10:43:45;;;;;;;;;;;;;;;33.29;33.24;100100.23;108199;1253;60407;-78
2023/07/13 10:46:14;;;;;;;;;;;;;;;33.44;33.08;100091.73;108168;1254;64624;-78
2023/07/13 10:48:42;;;;;;;;;;;;;;;33.54;33.01;100092.44;108246;1254;63923;-77
2023/07/13 10:51:10;;;;;;;;;;;;;;;33.59;32.15;100090.44;108123;1254;64096;-78
2023/07/13 10:53:39;;;;;;;;;;;;;;;33.60;31.87;100090.20;108147;1254;61122;-78
2023/07/13 10:56:19;;;;;;;;;;;;;;;33.63;32.09;100081.97;108163;1254;61134;-78
2023/07/13 10:58:46;;;;;;;;;;;;;;;33.70;32.00;100075.82;108171;1254;64880;-78
2023/07/13 11:01:15;;;;;;;;;;;;;;;33.76;31.80;100075.94;108154;1254;65201;-78
2023/07/13 11:03:51;;;;;;;;;;;;;;;33.75;32.07;100074.77;108110;1254;64154;-77
2023/07/13 11:06:22;;;;;;;;;;;;;;;33.76;32.00;100067.77;108124;1254;61160;-79
2023/07/13 11:08:54;;;;;;;;;;;;;;;33.83;31.88;100064.08;108142;1253;60079;-78
2023/07/13 11:11:24;;;;;;;;;;;;;;;33.90;31.53;100068.13;108104;1254;65824;-79
2023/07/13 11:13:51;;;;;;;;;;;;;;;33.88;31.22;100062.46;108088;1254;63984;-77
2023/07/13 11:16:18;;;;;;;;;;;;;;;33.75;31.61;100060.11;108091;1254;64187;-78
2023/07/13 11:18:49;;;;;;;;;;;;;;;33.64;31.86;100052.77;108056;1254;61242;-78
2023/07/13 11:21:20;;;;;;;;;;;;;;;33.63;31.89;100050.02;108285;1254;61113;-76
2023/07/13 11:24:13;;;;;;;;;;;;;;;33.70;31.84;100049.23;108014;1254;65866;-77
2023/07/13 11:26:47;;;;;;;;;;;;;;;33.72;31.69;100053.00;108087;1254;66158;-77
2023/07/13 11:29:20;;;;;;;;;;;;;;;33.63;31.52;100052.85;108177;1254;65300;-77
2023/07/13 11:31:54;;;;;;;;;;;;;;;33.57;31.28;100046.73;108099;1254;61214;-77
2023/07/13 11:34:27;;;;;;;;;;;;;;;33.57;31.52;100048.78;104207;1254;5233374;-78
2023/07/13 11:36:54;;;;;;;;;;;;;;;33.61;31.66;100054.65;108202;1254;65764;-76
2023/07/13 11:39:31;;;;;;;;;;;;;;;33.64;31.73;100059.26;108257;1254;65147;-77
2023/07/13 11:41:59;;;;;;;;;;;;;;;33.62;31.74;100060.87;108091;1254;65713;-77
2023/07/13 11:44:26;;;;;;;;;;;;;;;33.63;32.13;100062.27;108098;1253;61125;-78
2023/07/13 11:47:11;;;;;;;;;;;;;;;33.71;31.94;100066.48;107957;1254;61203;-77
2023/07/13 11:49:46;;;;;;;;;;;;;;;33.78;31.88;100068.45;108046;1254;67388;-78
2023/07/13 11:52:15;;;;;;;;;;;;;;;33.86;32.12;100065.59;108092;1253;65384;-78
2023/07/13 11:54:58;;;;;;;;;;;;;;;34.00;32.20;100068.61;108081;1254;64876;-78
2023/07/13 11:57:27;;;;;;;;;;;;;;;34.14;31.93;100061.14;108042;1254;61182;-75
2023/07/13 11:59:54;;;;;;;;;;;;;;;34.21;31.91;100054.48;108119;1254;61461;-76
2023/07/13 12:02:29;;;;;;;;;;;;;;;34.19;31.73;100049.23;108076;1254;66025;-78
2023/07/13 12:04:56;;;;;;;;;;;;;;;34.10;31.45;100048.95;108139;1254;66200;-76
2023/07/13 12:07:22;;;;;;;;;;;;;;;33.88;31.58;100046.23;108164;1254;65115;-78
2023/07/13 12:09:50;;;;;;;;;;;;;;;33.75;32.17;100042.39;108139;1253;61234;-78
2023/07/13 12:12:18;;;;;;;;;;;;;;;33.75;32.98;100041.21;108082;1254;61681;-76
2023/07/13 12:14:45;;;;;;;;;;;;;;;33.75;33.26;100041.52;108150;1254;66064;-77
2023/07/13 12:17:19;;;;;;;;;;;;;;;33.71;33.53;100042.17;108157;1254;65721;-78
2023/07/13 12:19:53;;;;;;;;;;;;;;;33.63;33.50;100036.88;108083;1254;65750;-78
2023/07/13 12:22:22;;;;;;;;;;;;;;;33.56;33.68;100037.97;107996;1254;61154;-77
2023/07/13 12:24:49;;;;;;;;;;;;;;;33.52;34.15;100038.69;108103;1254;61282;-76
2023/07/13 12:27:16;;;;;;;;;;;;;;;33.47;34.65;100037.81;108134;1254;66161;-77
2023/07/13 12:29:48;;;;;;;;;;;;;;;33.49;34.76;100032.55;108139;1254;64273;-77
2023/07/13 12:32:18;;;;;;;;;;;;;;;33.55;34.84;100024.85;108102;1254;62803;-77
2023/07/13 12:34:51;;;;;;;;;;;;;;;33.68;35.00;100024.58;108108;1254;61026;-77
2023/07/13 12:37:17;;;;;;;;;;;;;;;33.77;34.73;100019.79;108081;1254;59792;-77
2023/07/13 12:39:45;;;;;;;;;;;;;;;33.85;34.69;100018.84;108163;1254;65839;-77